sensor_id;sensor_type;location;lat;lon;timestamp;temperature;humidity
59572;DHT22;70118;45.638;11.714;2023-09-30T00:00:26;26.50;73.70
59572;DHT22;70118;45.638;11.714;2023-09-30T00:02:53;26.40;73.70
59572;DHT22;70118;45.638;11.714;2023-09-30T00:05:18;26.50;73.70
59572;DHT22;70118;45.638;11.714;2023-09-30T00:07:47;26.50;73.70
59572;DHT22;70118;45.638;11.714;2023-09-30T00:10:13;26.40;73.80
59572;DHT22;70118;45.638;11.714;2023-09-30T00:12:40;26.50;73.60
59572;DHT22;70118;45.638;11.714;2023-09-30T00:15:06;26.50;73.60
59572;DHT22;70118;45.638;11.714;2023-09-30T00:17:32;26.50;73.60
59572;DHT22;70118;45.638;11.714;2023-09-30T00:19:58;26.50;73.60
59572;DHT22;70118;45.638;11.714;2023-09-30T00:22:25;26.40;73.60
59572;DHT22;70118;45.638;11.714;2023-09-30T00:24:51;26.40;73.70
59572;DHT22;70118;45.638;11.714;2023-09-30T00:27:16;26.40;73.60
59572;DHT22;70118;45.638;11.714;2023-09-30T00:29:42;26.40;73.70
59572;DHT22;70118;45.638;11.714;2023-09-30T00:32:08;26.40;73.70
59572;DHT22;70118;45.638;11.714;2023-09-30T00:34:37;26.40;73.60
59572;DHT22;70118;45.638;11.714;2023-09-30T00:37:03;26.40;73.70
59572;DHT22;70118;45.638;11.714;2023-09-30T00:39:29;26.40;73.60
59572;DHT22;70118;45.638;11.714;2023-09-30T00:41:58;26.40;73.60
59572;DHT22;70118;45.638;11.714;2023-09-30T00:44:25;26.40;73.60
59572;DHT22;70118;45.638;11.714;2023-09-30T00:46:51;26.40;73.60
59572;DHT22;70118;45.638;11.714;2023-09-30T00:49:18;26.40;73.70
59572;DHT22;70118;45.638;11.714;2023-09-30T00:51:45;26.40;73.50
59572;DHT22;70118;45.638;11.714;2023-09-30T00:54:12;26.40;73.60
59572;DHT22;70118;45.638;11.714;2023-09-30T00:56:45;26.40;73.50
59572;DHT22;70118;45.638;11.714;2023-09-30T00:59:15;26.40;73.80
59572;DHT22;70118;45.638;11.714;2023-09-30T01:01:45;26.40;73.60
59572;DHT22;70118;45.638;11.714;2023-09-30T01:04:12;26.50;73.60
59572;DHT22;70118;45.638;11.714;2023-09-30T01:06:38;26.40;73.70
59572;DHT22;70118;45.638;11.714;2023-09-30T01:09:04;26.30;73.00
59572;DHT22;70118;45.638;11.714;2023-09-30T01:11:30;26.40;73.70
59572;DHT22;70118;45.638;11.714;2023-09-30T01:13:56;26.40;73.70
59572;DHT22;70118;45.638;11.714;2023-09-30T01:16:23;26.40;73.70
59572;DHT22;70118;45.638;11.714;2023-09-30T01:18:52;26.40;73.70
59572;DHT22;70118;45.638;11.714;2023-09-30T01:21:18;26.30;73.00
59572;DHT22;70118;45.638;11.714;2023-09-30T01:23:45;26.30;73.10
59572;DHT22;70118;45.638;11.714;2023-09-30T01:26:12;26.40;73.70
59572;DHT22;70118;45.638;11.714;2023-09-30T01:28:39;26.40;73.90
59572;DHT22;70118;45.638;11.714;2023-09-30T01:31:05;26.40;73.70
59572;DHT22;70118;45.638;11.714;2023-09-30T01:33:32;26.30;73.00
59572;DHT22;70118;45.638;11.714;2023-09-30T01:35:58;26.30;73.10
59572;DHT22;70118;45.638;11.714;2023-09-30T01:38:27;26.30;73.00
59572;DHT22;70118;45.638;11.714;2023-09-30T01:40:53;26.40;73.60
59572;DHT22;70118;45.638;11.714;2023-09-30T01:43:19;26.40;73.00
59572;DHT22;70118;45.638;11.714;2023-09-30T01:45:45;26.30;73.10
59572;DHT22;70118;45.638;11.714;2023-09-30T01:48:11;26.30;73.00
59572;DHT22;70118;45.638;11.714;2023-09-30T01:50:38;26.30;73.00
59572;DHT22;70118;45.638;11.714;2023-09-30T01:53:04;26.30;73.10
59572;DHT22;70118;45.638;11.714;2023-09-30T01:55:35;26.30;73.00
59572;DHT22;70118;45.638;11.714;2023-09-30T01:58:02;26.40;73.70
59572;DHT22;70118;45.638;11.714;2023-09-30T02:00:28;26.30;72.80
59572;DHT22;70118;45.638;11.714;2023-09-30T02:02:55;26.30;73.00
59572;DHT22;70118;45.638;11.714;2023-09-30T02:05:22;26.30;73.00
59572;DHT22;70118;45.638;11.714;2023-09-30T02:07:48;26.30;72.80
59572;DHT22;70118;45.638;11.714;2023-09-30T02:10:15;26.30;72.90
59572;DHT22;70118;45.638;11.714;2023-09-30T02:12:41;26.20;72.80
59572;DHT22;70118;45.638;11.714;2023-09-30T02:15:07;26.30;72.70
59572;DHT22;70118;45.638;11.714;2023-09-30T02:17:33;26.30;72.80
59572;DHT22;70118;45.638;11.714;2023-09-30T02:19:59;26.30;72.80
59572;DHT22;70118;45.638;11.714;2023-09-30T02:22:27;26.30;72.90
59572;DHT22;70118;45.638;11.714;2023-09-30T02:24:53;26.30;72.90
59572;DHT22;70118;45.638;11.714;2023-09-30T02:27:20;26.30;72.70
59572;DHT22;70118;45.638;11.714;2023-09-30T02:29:46;26.20;72.70
59572;DHT22;70118;45.638;11.714;2023-09-30T02:32:11;26.20;72.70
59572;DHT22;70118;45.638;11.714;2023-09-30T02:34:39;26.20;72.80
59572;DHT22;70118;45.638;11.714;2023-09-30T02:37:05;26.20;72.80
59572;DHT22;70118;45.638;11.714;2023-09-30T02:39:31;26.20;72.70
59572;DHT22;70118;45.638;11.714;2023-09-30T02:41:57;26.10;72.70
59572;DHT22;70118;45.638;11.714;2023-09-30T02:44:22;26.20;72.80
59572;DHT22;70118;45.638;11.714;2023-09-30T02:46:48;26.20;72.70
59572;DHT22;70118;45.638;11.714;2023-09-30T02:49:14;26.20;72.50
59572;DHT22;70118;45.638;11.714;2023-09-30T02:51:40;26.30;72.60
59572;DHT22;70118;45.638;11.714;2023-09-30T02:54:06;26.30;72.70
59572;DHT22;70118;45.638;11.714;2023-09-30T02:56:32;26.20;72.80
59572;DHT22;70118;45.638;11.714;2023-09-30T02:58:58;26.20;72.90
59572;DHT22;70118;45.638;11.714;2023-09-30T03:01:25;26.20;72.90
59572;DHT22;70118;45.638;11.714;2023-09-30T03:03:52;26.20;72.80
59572;DHT22;70118;45.638;11.714;2023-09-30T03:06:18;26.20;72.70
59572;DHT22;70118;45.638;11.714;2023-09-30T03:08:44;26.20;72.70
59572;DHT22;70118;45.638;11.714;2023-09-30T03:11:10;26.10;72.70
59572;DHT22;70118;45.638;11.714;2023-09-30T03:13:36;26.10;72.70
59572;DHT22;70118;45.638;11.714;2023-09-30T03:16:03;26.20;72.70
59572;DHT22;70118;45.638;11.714;2023-09-30T03:18:29;26.20;72.70
59572;DHT22;70118;45.638;11.714;2023-09-30T03:21:00;26.10;72.60
59572;DHT22;70118;45.638;11.714;2023-09-30T03:23:27;26.20;72.70
59572;DHT22;70118;45.638;11.714;2023-09-30T03:25:59;26.10;72.80
59572;DHT22;70118;45.638;11.714;2023-09-30T03:28:28;26.10;72.60
59572;DHT22;70118;45.638;11.714;2023-09-30T03:30:54;26.10;72.60
59572;DHT22;70118;45.638;11.714;2023-09-30T03:33:22;26.20;72.70
59572;DHT22;70118;45.638;11.714;2023-09-30T03:35:48;26.10;72.60
59572;DHT22;70118;45.638;11.714;2023-09-30T03:38:13;26.10;72.70
59572;DHT22;70118;45.638;11.714;2023-09-30T03:40:40;26.10;72.60
59572;DHT22;70118;45.638;11.714;2023-09-30T03:43:13;26.10;72.80
59572;DHT22;70118;45.638;11.714;2023-09-30T03:45:40;26.10;72.80
59572;DHT22;70118;45.638;11.714;2023-09-30T03:48:07;26.10;72.90
59572;DHT22;70118;45.638;11.714;2023-09-30T03:50:33;26.10;72.90
59572;DHT22;70118;45.638;11.714;2023-09-30T03:53:05;26.10;72.60
59572;DHT22;70118;45.638;11.714;2023-09-30T03:55:33;26.10;72.70
59572;DHT22;70118;45.638;11.714;2023-09-30T03:58:00;26.10;72.70
59572;DHT22;70118;45.638;11.714;2023-09-30T04:00:26;26.10;72.70
59572;DHT22;70118;45.638;11.714;2023-09-30T04:02:52;26.10;72.80
59572;DHT22;70118;45.638;11.714;2023-09-30T04:05:24;26.10;72.80
59572;DHT22;70118;45.638;11.714;2023-09-30T04:08:02;26.10;72.90
59572;DHT22;70118;45.638;11.714;2023-09-30T04:10:28;26.10;72.80
59572;DHT22;70118;45.638;11.714;2023-09-30T04:12:55;26.00;72.80
59572;DHT22;70118;45.638;11.714;2023-09-30T04:15:22;26.00;72.80
59572;DHT22;70118;45.638;11.714;2023-09-30T04:17:50;26.10;72.90
59572;DHT22;70118;45.638;11.714;2023-09-30T04:20:18;26.00;72.70
59572;DHT22;70118;45.638;11.714;2023-09-30T04:22:49;26.00;72.80
59572;DHT22;70118;45.638;11.714;2023-09-30T04:25:15;26.00;72.80
59572;DHT22;70118;45.638;11.714;2023-09-30T04:27:44;26.10;72.70
59572;DHT22;70118;45.638;11.714;2023-09-30T04:30:13;26.00;72.80
59572;DHT22;70118;45.638;11.714;2023-09-30T04:32:40;26.00;72.80
59572;DHT22;70118;45.638;11.714;2023-09-30T04:35:08;26.10;72.80
59572;DHT22;70118;45.638;11.714;2023-09-30T04:37:37;26.00;72.90
59572;DHT22;70118;45.638;11.714;2023-09-30T04:40:08;26.00;72.70
59572;DHT22;70118;45.638;11.714;2023-09-30T04:42:46;25.90;72.80
59572;DHT22;70118;45.638;11.714;2023-09-30T04:45:15;26.00;72.90
59572;DHT22;70118;45.638;11.714;2023-09-30T04:47:49;26.00;72.90
59572;DHT22;70118;45.638;11.714;2023-09-30T04:50:15;26.00;72.70
59572;DHT22;70118;45.638;11.714;2023-09-30T04:52:42;25.90;72.80
59572;DHT22;70118;45.638;11.714;2023-09-30T04:55:08;26.00;72.80
59572;DHT22;70118;45.638;11.714;2023-09-30T04:57:34;25.90;72.80
59572;DHT22;70118;45.638;11.714;2023-09-30T05:00:00;26.00;72.90
59572;DHT22;70118;45.638;11.714;2023-09-30T05:02:27;26.00;72.90
59572;DHT22;70118;45.638;11.714;2023-09-30T05:04:53;26.00;72.80
59572;DHT22;70118;45.638;11.714;2023-09-30T05:07:21;26.00;72.90
59572;DHT22;70118;45.638;11.714;2023-09-30T05:09:48;26.00;72.80
59572;DHT22;70118;45.638;11.714;2023-09-30T05:12:13;25.90;72.80
59572;DHT22;70118;45.638;11.714;2023-09-30T05:14:40;25.90;72.80
59572;DHT22;70118;45.638;11.714;2023-09-30T05:17:06;25.90;72.80
59572;DHT22;70118;45.638;11.714;2023-09-30T05:19:33;25.80;72.80
59572;DHT22;70118;45.638;11.714;2023-09-30T05:21:59;25.90;72.80
59572;DHT22;70118;45.638;11.714;2023-09-30T05:24:27;25.90;72.80
59572;DHT22;70118;45.638;11.714;2023-09-30T05:26:53;25.90;72.90
59572;DHT22;70118;45.638;11.714;2023-09-30T05:29:20;26.00;72.70
59572;DHT22;70118;45.638;11.714;2023-09-30T05:31:46;25.90;72.80
59572;DHT22;70118;45.638;11.714;2023-09-30T05:34:12;25.90;72.90
59572;DHT22;70118;45.638;11.714;2023-09-30T05:36:38;25.90;72.80
59572;DHT22;70118;45.638;11.714;2023-09-30T05:39:05;25.90;72.90
59572;DHT22;70118;45.638;11.714;2023-09-30T05:41:31;25.90;72.90
59572;DHT22;70118;45.638;11.714;2023-09-30T05:43:57;25.90;72.90
59572;DHT22;70118;45.638;11.714;2023-09-30T05:46:25;25.90;72.90
59572;DHT22;70118;45.638;11.714;2023-09-30T05:48:52;26.00;72.80
59572;DHT22;70118;45.638;11.714;2023-09-30T05:51:18;26.10;72.70
59572;DHT22;70118;45.638;11.714;2023-09-30T05:53:44;26.00;72.70
59572;DHT22;70118;45.638;11.714;2023-09-30T05:56:12;26.10;72.40
59572;DHT22;70118;45.638;11.714;2023-09-30T05:58:43;26.20;72.50
59572;DHT22;70118;45.638;11.714;2023-09-30T06:01:09;26.10;72.40
59572;DHT22;70118;45.638;11.714;2023-09-30T06:03:46;26.20;72.60
59572;DHT22;70118;45.638;11.714;2023-09-30T06:06:15;26.20;72.50
59572;DHT22;70118;45.638;11.714;2023-09-30T06:08:42;26.20;72.40
59572;DHT22;70118;45.638;11.714;2023-09-30T06:11:18;26.20;72.50
59572;DHT22;70118;45.638;11.714;2023-09-30T06:13:50;26.20;72.50
59572;DHT22;70118;45.638;11.714;2023-09-30T06:16:17;26.20;72.50
59572;DHT22;70118;45.638;11.714;2023-09-30T06:18:44;26.30;72.70
59572;DHT22;70118;45.638;11.714;2023-09-30T06:21:13;26.30;72.90
59572;DHT22;70118;45.638;11.714;2023-09-30T06:23:40;26.40;73.70
59572;DHT22;70118;45.638;11.714;2023-09-30T06:26:06;26.40;73.80
59572;DHT22;70118;45.638;11.714;2023-09-30T06:28:32;26.40;73.70
59572;DHT22;70118;45.638;11.714;2023-09-30T06:31:06;26.40;73.80
59572;DHT22;70118;45.638;11.714;2023-09-30T06:33:37;26.40;73.80
59572;DHT22;70118;45.638;11.714;2023-09-30T06:36:09;26.30;73.10
59572;DHT22;70118;45.638;11.714;2023-09-30T06:38:36;26.40;73.40
59572;DHT22;70118;45.638;11.714;2023-09-30T06:41:03;26.30;73.50
59572;DHT22;70118;45.638;11.714;2023-09-30T06:43:29;26.50;74.30
59572;DHT22;70118;45.638;11.714;2023-09-30T06:45:55;26.40;74.40
59572;DHT22;70118;45.638;11.714;2023-09-30T06:48:21;26.40;74.30
59572;DHT22;70118;45.638;11.714;2023-09-30T06:50:48;26.40;73.60
59572;DHT22;70118;45.638;11.714;2023-09-30T06:53:17;26.50;74.50
59572;DHT22;70118;45.638;11.714;2023-09-30T06:55:52;26.40;74.50
59572;DHT22;70118;45.638;11.714;2023-09-30T06:58:18;26.40;74.50
59572;DHT22;70118;45.638;11.714;2023-09-30T07:00:51;26.40;74.50
59572;DHT22;70118;45.638;11.714;2023-09-30T07:03:17;26.40;74.40
59572;DHT22;70118;45.638;11.714;2023-09-30T07:05:45;26.50;74.30
59572;DHT22;70118;45.638;11.714;2023-09-30T07:08:11;26.50;74.10
59572;DHT22;70118;45.638;11.714;2023-09-30T07:10:37;26.50;74.10
59572;DHT22;70118;45.638;11.714;2023-09-30T07:13:03;26.60;74.20
59572;DHT22;70118;45.638;11.714;2023-09-30T07:15:29;26.40;74.00
59572;DHT22;70118;45.638;11.714;2023-09-30T07:17:55;26.60;74.00
59572;DHT22;70118;45.638;11.714;2023-09-30T07:20:21;26.90;73.60
59572;DHT22;70118;45.638;11.714;2023-09-30T07:22:48;27.20;73.30
59572;DHT22;70118;45.638;11.714;2023-09-30T07:25:15;27.50;73.00
59572;DHT22;70118;45.638;11.714;2023-09-30T07:27:43;27.80;72.50
59572;DHT22;70118;45.638;11.714;2023-09-30T07:30:15;27.90;72.00
59572;DHT22;70118;45.638;11.714;2023-09-30T07:32:45;27.90;72.10
59572;DHT22;70118;45.638;11.714;2023-09-30T07:35:13;27.80;72.00
59572;DHT22;70118;45.638;11.714;2023-09-30T07:37:42;27.70;72.20
59572;DHT22;70118;45.638;11.714;2023-09-30T07:40:09;27.70;72.00
59572;DHT22;70118;45.638;11.714;2023-09-30T07:42:36;27.60;72.10
59572;DHT22;70118;45.638;11.714;2023-09-30T07:45:02;27.60;72.10
59572;DHT22;70118;45.638;11.714;2023-09-30T07:47:29;27.60;71.80
59572;DHT22;70118;45.638;11.714;2023-09-30T07:49:56;27.70;71.80
59572;DHT22;70118;45.638;11.714;2023-09-30T07:52:22;27.80;71.80
59572;DHT22;70118;45.638;11.714;2023-09-30T07:54:51;27.90;71.80
59572;DHT22;70118;45.638;11.714;2023-09-30T07:57:21;27.90;71.80
59572;DHT22;70118;45.638;11.714;2023-09-30T07:59:47;27.90;71.70
59572;DHT22;70118;45.638;11.714;2023-09-30T08:02:28;27.80;71.70
59572;DHT22;70118;45.638;11.714;2023-09-30T08:05:06;27.70;71.80
59572;DHT22;70118;45.638;11.714;2023-09-30T08:07:33;27.70;71.80
59572;DHT22;70118;45.638;11.714;2023-09-30T08:10:00;27.70;72.00
59572;DHT22;70118;45.638;11.714;2023-09-30T08:12:25;27.70;71.80
59572;DHT22;70118;45.638;11.714;2023-09-30T08:14:51;27.60;72.00
59572;DHT22;70118;45.638;11.714;2023-09-30T08:17:17;27.60;72.00
59572;DHT22;70118;45.638;11.714;2023-09-30T08:19:46;27.50;71.90
59572;DHT22;70118;45.638;11.714;2023-09-30T08:22:13;27.50;72.00
59572;DHT22;70118;45.638;11.714;2023-09-30T08:24:40;27.60;71.90
59572;DHT22;70118;45.638;11.714;2023-09-30T08:27:06;27.50;71.80
59572;DHT22;70118;45.638;11.714;2023-09-30T08:29:35;27.50;72.00
59572;DHT22;70118;45.638;11.714;2023-09-30T08:32:04;27.50;72.00
59572;DHT22;70118;45.638;11.714;2023-09-30T08:34:30;27.50;71.90
59572;DHT22;70118;45.638;11.714;2023-09-30T08:36:57;27.50;72.00
59572;DHT22;70118;45.638;11.714;2023-09-30T08:39:23;27.40;71.90
59572;DHT22;70118;45.638;11.714;2023-09-30T08:41:50;27.50;72.00
59572;DHT22;70118;45.638;11.714;2023-09-30T08:44:16;27.50;72.10
59572;DHT22;70118;45.638;11.714;2023-09-30T08:46:42;27.50;72.00
59572;DHT22;70118;45.638;11.714;2023-09-30T08:49:09;27.50;72.10
59572;DHT22;70118;45.638;11.714;2023-09-30T08:51:37;27.40;72.00
59572;DHT22;70118;45.638;11.714;2023-09-30T08:54:04;27.40;71.90
59572;DHT22;70118;45.638;11.714;2023-09-30T08:56:31;27.50;71.90
59572;DHT22;70118;45.638;11.714;2023-09-30T08:59:00;27.50;71.90
59572;DHT22;70118;45.638;11.714;2023-09-30T09:01:29;27.40;71.90
59572;DHT22;70118;45.638;11.714;2023-09-30T09:03:56;27.40;71.80
59572;DHT22;70118;45.638;11.714;2023-09-30T09:06:23;27.50;71.90
59572;DHT22;70118;45.638;11.714;2023-09-30T09:08:50;27.40;72.10
59572;DHT22;70118;45.638;11.714;2023-09-30T09:11:16;27.40;72.00
59572;DHT22;70118;45.638;11.714;2023-09-30T09:13:53;27.40;72.30
59572;DHT22;70118;45.638;11.714;2023-09-30T09:16:22;27.40;72.10
59572;DHT22;70118;45.638;11.714;2023-09-30T09:18:49;27.40;72.10
59572;DHT22;70118;45.638;11.714;2023-09-30T09:21:22;27.30;72.10
59572;DHT22;70118;45.638;11.714;2023-09-30T09:23:50;27.40;72.20
59572;DHT22;70118;45.638;11.714;2023-09-30T09:26:28;27.40;72.00
59572;DHT22;70118;45.638;11.714;2023-09-30T09:29:00;27.20;72.10
59572;DHT22;70118;45.638;11.714;2023-09-30T09:31:32;27.40;72.10
59572;DHT22;70118;45.638;11.714;2023-09-30T09:34:00;27.30;72.00
59572;DHT22;70118;45.638;11.714;2023-09-30T09:36:43;27.30;72.20
59572;DHT22;70118;45.638;11.714;2023-09-30T09:39:10;27.30;72.20
59572;DHT22;70118;45.638;11.714;2023-09-30T09:41:52;27.30;72.00
59572;DHT22;70118;45.638;11.714;2023-09-30T09:44:21;27.30;72.10
59572;DHT22;70118;45.638;11.714;2023-09-30T09:46:49;27.30;72.10
59572;DHT22;70118;45.638;11.714;2023-09-30T09:49:18;27.30;72.10
59572;DHT22;70118;45.638;11.714;2023-09-30T09:51:46;27.40;72.40
59572;DHT22;70118;45.638;11.714;2023-09-30T09:54:12;27.30;72.20
59572;DHT22;70118;45.638;11.714;2023-09-30T09:56:39;27.30;72.40
59572;DHT22;70118;45.638;11.714;2023-09-30T09:59:05;27.40;72.40
59572;DHT22;70118;45.638;11.714;2023-09-30T10:01:33;27.30;72.40
59572;DHT22;70118;45.638;11.714;2023-09-30T10:04:00;27.20;72.40
59572;DHT22;70118;45.638;11.714;2023-09-30T10:06:27;27.20;72.60
59572;DHT22;70118;45.638;11.714;2023-09-30T10:08:54;27.30;72.80
59572;DHT22;70118;45.638;11.714;2023-09-30T10:11:23;27.20;72.70
59572;DHT22;70118;45.638;11.714;2023-09-30T10:13:58;27.30;72.70
59572;DHT22;70118;45.638;11.714;2023-09-30T10:19:19;27.20;72.70
59572;DHT22;70118;45.638;11.714;2023-09-30T10:24:58;27.30;72.50
59572;DHT22;70118;45.638;11.714;2023-09-30T10:27:31;27.40;72.50
59572;DHT22;70118;45.638;11.714;2023-09-30T10:35:21;27.30;72.60
59572;DHT22;70118;45.638;11.714;2023-09-30T10:40:48;27.30;72.70
59572;DHT22;70118;45.638;11.714;2023-09-30T10:43:38;27.30;72.70
59572;DHT22;70118;45.638;11.714;2023-09-30T10:48:54;27.20;72.70
59572;DHT22;70118;45.638;11.714;2023-09-30T10:51:21;27.20;72.70
59572;DHT22;70118;45.638;11.714;2023-09-30T10:53:48;27.30;72.60
59572;DHT22;70118;45.638;11.714;2023-09-30T10:56:14;27.30;72.60
59572;DHT22;70118;45.638;11.714;2023-09-30T10:58:45;27.30;72.60
59572;DHT22;70118;45.638;11.714;2023-09-30T11:01:12;27.20;72.80
59572;DHT22;70118;45.638;11.714;2023-09-30T11:03:40;27.20;72.80
59572;DHT22;70118;45.638;11.714;2023-09-30T11:06:06;27.20;72.70
59572;DHT22;70118;45.638;11.714;2023-09-30T11:08:32;27.30;72.60
59572;DHT22;70118;45.638;11.714;2023-09-30T11:10:58;27.30;72.50
59572;DHT22;70118;45.638;11.714;2023-09-30T11:13:32;27.30;72.40
59572;DHT22;70118;45.638;11.714;2023-09-30T11:16:03;27.20;72.50
59572;DHT22;70118;45.638;11.714;2023-09-30T11:18:33;27.20;72.40
59572;DHT22;70118;45.638;11.714;2023-09-30T11:21:07;27.20;72.80
59572;DHT22;70118;45.638;11.714;2023-09-30T11:23:33;27.20;72.50
59572;DHT22;70118;45.638;11.714;2023-09-30T11:25:59;27.20;72.70
59572;DHT22;70118;45.638;11.714;2023-09-30T11:28:25;27.20;72.70
59572;DHT22;70118;45.638;11.714;2023-09-30T11:31:02;27.30;72.60
59572;DHT22;70118;45.638;11.714;2023-09-30T11:33:29;27.20;72.70
59572;DHT22;70118;45.638;11.714;2023-09-30T11:36:01;27.30;72.40
59572;DHT22;70118;45.638;11.714;2023-09-30T11:38:32;27.30;72.50
59572;DHT22;70118;45.638;11.714;2023-09-30T11:41:02;27.20;72.50
59572;DHT22;70118;45.638;11.714;2023-09-30T11:43:31;27.10;72.60
59572;DHT22;70118;45.638;11.714;2023-09-30T11:46:11;27.30;72.50
59572;DHT22;70118;45.638;11.714;2023-09-30T11:51:44;27.20;72.70
59572;DHT22;70118;45.638;11.714;2023-09-30T11:54:14;27.20;72.60
59572;DHT22;70118;45.638;11.714;2023-09-30T11:56:40;27.20;72.60
59572;DHT22;70118;45.638;11.714;2023-09-30T11:59:06;27.20;72.50
59572;DHT22;70118;45.638;11.714;2023-09-30T12:01:32;27.30;72.50
59572;DHT22;70118;45.638;11.714;2023-09-30T12:03:58;27.20;72.70
59572;DHT22;70118;45.638;11.714;2023-09-30T12:06:25;27.10;72.40
59572;DHT22;70118;45.638;11.714;2023-09-30T12:08:51;27.10;72.50
59572;DHT22;70118;45.638;11.714;2023-09-30T12:11:21;27.10;72.60
59572;DHT22;70118;45.638;11.714;2023-09-30T12:13:49;27.20;72.60
59572;DHT22;70118;45.638;11.714;2023-09-30T12:16:16;27.10;72.80
59572;DHT22;70118;45.638;11.714;2023-09-30T12:18:43;27.10;72.80
59572;DHT22;70118;45.638;11.714;2023-09-30T12:21:12;27.10;72.70
59572;DHT22;70118;45.638;11.714;2023-09-30T12:23:45;27.10;72.70
59572;DHT22;70118;45.638;11.714;2023-09-30T12:26:11;27.10;72.70
59572;DHT22;70118;45.638;11.714;2023-09-30T12:28:38;27.10;72.80
59572;DHT22;70118;45.638;11.714;2023-09-30T12:31:06;27.10;72.80
59572;DHT22;70118;45.638;11.714;2023-09-30T12:33:32;27.10;72.70
59572;DHT22;70118;45.638;11.714;2023-09-30T12:35:58;27.10;72.80
59572;DHT22;70118;45.638;11.714;2023-09-30T12:38:25;27.10;72.90
59572;DHT22;70118;45.638;11.714;2023-09-30T12:40:52;27.10;72.80
59572;DHT22;70118;45.638;11.714;2023-09-30T12:43:19;27.20;73.10
59572;DHT22;70118;45.638;11.714;2023-09-30T12:45:45;27.10;73.10
59572;DHT22;70118;45.638;11.714;2023-09-30T12:48:13;27.10;72.90
59572;DHT22;70118;45.638;11.714;2023-09-30T12:50:38;27.10;72.90
59572;DHT22;70118;45.638;11.714;2023-09-30T12:53:04;27.20;72.80
59572;DHT22;70118;45.638;11.714;2023-09-30T12:55:30;27.10;72.80
59572;DHT22;70118;45.638;11.714;2023-09-30T12:57:56;27.10;72.70
59572;DHT22;70118;45.638;11.714;2023-09-30T13:00:22;27.10;72.90
59572;DHT22;70118;45.638;11.714;2023-09-30T13:02:50;27.10;73.00
59572;DHT22;70118;45.638;11.714;2023-09-30T13:05:16;27.20;72.90
59572;DHT22;70118;45.638;11.714;2023-09-30T13:07:42;27.10;72.90
59572;DHT22;70118;45.638;11.714;2023-09-30T13:10:09;27.10;72.90
59572;DHT22;70118;45.638;11.714;2023-09-30T13:12:35;27.10;72.90
59572;DHT22;70118;45.638;11.714;2023-09-30T13:15:01;27.10;72.80
59572;DHT22;70118;45.638;11.714;2023-09-30T13:17:28;27.30;72.90
59572;DHT22;70118;45.638;11.714;2023-09-30T13:19:54;27.20;72.70
59572;DHT22;70118;45.638;11.714;2023-09-30T13:22:20;27.20;72.90
59572;DHT22;70118;45.638;11.714;2023-09-30T13:24:46;27.10;72.80
59572;DHT22;70118;45.638;11.714;2023-09-30T13:27:12;27.10;72.60
59572;DHT22;70118;45.638;11.714;2023-09-30T13:29:41;27.20;72.70
59572;DHT22;70118;45.638;11.714;2023-09-30T13:32:09;27.10;72.70
59572;DHT22;70118;45.638;11.714;2023-09-30T13:34:36;27.20;72.60
59572;DHT22;70118;45.638;11.714;2023-09-30T13:37:02;27.20;72.50
59572;DHT22;70118;45.638;11.714;2023-09-30T13:39:28;27.10;72.40
59572;DHT22;70118;45.638;11.714;2023-09-30T13:41:54;27.10;72.40
59572;DHT22;70118;45.638;11.714;2023-09-30T13:44:20;27.10;72.30
59572;DHT22;70118;45.638;11.714;2023-09-30T13:46:47;27.10;72.20
59572;DHT22;70118;45.638;11.714;2023-09-30T13:49:13;27.10;72.10
59572;DHT22;70118;45.638;11.714;2023-09-30T13:51:39;27.10;72.10
59572;DHT22;70118;45.638;11.714;2023-09-30T13:54:06;27.10;72.00
59572;DHT22;70118;45.638;11.714;2023-09-30T13:56:35;27.10;72.00
59572;DHT22;70118;45.638;11.714;2023-09-30T13:59:00;27.10;72.10
59572;DHT22;70118;45.638;11.714;2023-09-30T14:01:26;27.10;72.10
59572;DHT22;70118;45.638;11.714;2023-09-30T14:03:52;27.20;72.10
59572;DHT22;70118;45.638;11.714;2023-09-30T14:06:22;27.10;72.30
59572;DHT22;70118;45.638;11.714;2023-09-30T14:08:48;27.10;72.20
59572;DHT22;70118;45.638;11.714;2023-09-30T14:11:15;27.10;72.20
59572;DHT22;70118;45.638;11.714;2023-09-30T14:13:41;27.10;72.40
59572;DHT22;70118;45.638;11.714;2023-09-30T14:16:08;27.10;72.40
59572;DHT22;70118;45.638;11.714;2023-09-30T14:18:33;27.10;72.60
59572;DHT22;70118;45.638;11.714;2023-09-30T14:21:02;27.10;72.60
59572;DHT22;70118;45.638;11.714;2023-09-30T14:23:28;27.10;72.40
59572;DHT22;70118;45.638;11.714;2023-09-30T14:25:54;27.00;72.50
59572;DHT22;70118;45.638;11.714;2023-09-30T14:28:23;27.10;72.40
59572;DHT22;70118;45.638;11.714;2023-09-30T14:30:49;27.10;72.40
59572;DHT22;70118;45.638;11.714;2023-09-30T14:33:18;27.10;72.30
59572;DHT22;70118;45.638;11.714;2023-09-30T14:35:47;27.00;72.40
59572;DHT22;70118;45.638;11.714;2023-09-30T14:38:13;27.10;72.50
59572;DHT22;70118;45.638;11.714;2023-09-30T14:40:40;27.00;72.40
59572;DHT22;70118;45.638;11.714;2023-09-30T14:43:09;27.10;72.50
59572;DHT22;70118;45.638;11.714;2023-09-30T14:45:41;27.00;72.50
59572;DHT22;70118;45.638;11.714;2023-09-30T14:48:08;27.10;72.60
59572;DHT22;70118;45.638;11.714;2023-09-30T14:50:35;27.00;72.50
59572;DHT22;70118;45.638;11.714;2023-09-30T14:53:03;27.00;72.40
59572;DHT22;70118;45.638;11.714;2023-09-30T14:55:31;27.10;72.50
59572;DHT22;70118;45.638;11.714;2023-09-30T14:57:57;27.10;72.60
59572;DHT22;70118;45.638;11.714;2023-09-30T15:00:23;27.10;72.50
59572;DHT22;70118;45.638;11.714;2023-09-30T15:02:50;27.10;72.40
59572;DHT22;70118;45.638;11.714;2023-09-30T15:05:16;27.10;72.60
59572;DHT22;70118;45.638;11.714;2023-09-30T15:07:43;27.10;72.60
59572;DHT22;70118;45.638;11.714;2023-09-30T15:10:09;27.00;72.70
59572;DHT22;70118;45.638;11.714;2023-09-30T15:12:35;27.00;72.70
59572;DHT22;70118;45.638;11.714;2023-09-30T15:15:01;27.00;72.70
59572;DHT22;70118;45.638;11.714;2023-09-30T15:17:29;27.00;72.80
59572;DHT22;70118;45.638;11.714;2023-09-30T15:19:55;27.00;72.70
59572;DHT22;70118;45.638;11.714;2023-09-30T15:22:21;27.00;72.80
59572;DHT22;70118;45.638;11.714;2023-09-30T15:24:47;27.10;72.60
59572;DHT22;70118;45.638;11.714;2023-09-30T15:27:15;27.10;72.50
59572;DHT22;70118;45.638;11.714;2023-09-30T15:29:41;27.00;72.50
59572;DHT22;70118;45.638;11.714;2023-09-30T15:32:07;27.00;72.50
59572;DHT22;70118;45.638;11.714;2023-09-30T15:34:36;27.00;72.50
59572;DHT22;70118;45.638;11.714;2023-09-30T15:37:09;27.00;72.50